Time;durP1;ratioP1;P1;durP2;ratioP2;P2;SDS_P1;SDS_P2;PMS_P1;PMS_P2;Temp;Humidity;BMP_temperature;BMP_pressure;BME280_temperature;BME280_humidity;BME280_pressure;Samples;Min_cycle;Max_cycle;Signal;HPM_P1;HPM_P2
2022/05/26 00:00:34;;;;;;;11.70;8.55;;;;;;;;;;4994352;28;20107;-72
2022/05/26 00:03:03;;;;;;;9.85;8.23;;;;;;;;;;4993068;28;20055;-72
2022/05/26 00:05:33;;;;;;;9.80;7.75;;;;;;;;;;4993797;28;20504;-71
2022/05/26 00:08:06;;;;;;;15.30;8.50;;;;;;;;;;4993626;28;20042;-71
2022/05/26 00:10:35;;;;;;;12.00;8.30;;;;;;;;;;4990196;28;20133;-70
2022/05/26 00:13:06;;;;;;;15.80;9.27;;;;;;;;;;4993577;28;20134;-71
2022/05/26 00:15:36;;;;;;;15.57;9.70;;;;;;;;;;4993891;28;20524;-71
2022/05/26 00:18:06;;;;;;;14.40;9.10;;;;;;;;;;4993432;28;20512;-70
2022/05/26 00:20:35;;;;;;;17.05;9.55;;;;;;;;;;4993582;28;20060;-70
2022/05/26 00:23:04;;;;;;;12.48;8.82;;;;;;;;;;4993149;28;20077;-69
2022/05/26 00:25:34;;;;;;;8.77;7.65;;;;;;;;;;4993649;28;20065;-69
2022/05/26 00:28:05;;;;;;;16.02;8.23;;;;;;;;;;4993718;28;20141;-69
2022/05/26 00:30:34;;;;;;;9.00;8.10;;;;;;;;;;4993466;28;20058;-70
2022/05/26 00:33:05;;;;;;;11.18;9.02;;;;;;;;;;4993483;28;20081;-70
2022/05/26 00:35:36;;;;;;;16.25;8.77;;;;;;;;;;4988839;28;20453;-70
2022/05/26 00:38:07;;;;;;;11.48;8.63;;;;;;;;;;4993696;28;20062;-70
2022/05/26 00:40:38;;;;;;;10.18;9.15;;;;;;;;;;4993689;28;20109;-71
2022/05/26 00:43:07;;;;;;;15.70;9.57;;;;;;;;;;4993561;28;20046;-71
2022/05/26 00:45:47;;;;;;;12.88;9.70;;;;;;;;;;4993703;28;20548;-70
2022/05/26 00:48:19;;;;;;;19.67;10.65;;;;;;;;;;4959007;28;20054;-71
2022/05/26 00:50:54;;;;;;;15.63;11.20;;;;;;;;;;4992703;28;20490;-70
2022/05/26 00:53:31;;;;;;;17.60;10.98;;;;;;;;;;4977036;28;20054;-70
2022/05/26 00:56:32;;;;;;;17.77;11.80;;;;;;;;;;4974426;28;20520;-70
2022/05/26 00:59:18;;;;;;;16.90;12.23;;;;;;;;;;4996869;28;20097;-70
2022/05/26 01:01:53;;;;;;;17.75;14.05;;;;;;;;;;4996369;28;20058;-71
2022/05/26 01:04:35;;;;;;;16.80;12.70;;;;;;;;;;4997032;28;20050;-71
2022/05/26 01:07:33;;;;;;;16.30;12.43;;;;;;;;;;4980091;28;20051;-72
2022/05/26 01:10:03;;;;;;;14.27;11.45;;;;;;;;;;4996343;28;20130;-72
2022/05/26 01:12:35;;;;;;;14.50;13.00;;;;;;;;;;4996853;28;20485;-72
2022/05/26 01:15:13;;;;;;;14.88;12.98;;;;;;;;;;4996639;28;20050;-72
2022/05/26 01:18:13;;;;;;;12.82;11.52;;;;;;;;;;4980388;28;20453;-72
2022/05/26 01:21:09;;;;;;;16.80;12.00;;;;;;;;;;4977556;28;20069;-71
2022/05/26 01:23:59;;;;;;;17.88;13.00;;;;;;;;;;4972362;28;20403;-70
2022/05/26 01:26:58;;;;;;;16.45;12.38;;;;;;;;;;4975773;28;20054;-70
2022/05/26 01:29:57;;;;;;;17.08;12.02;;;;;;;;;;4977216;28;20094;-70
2022/05/26 01:32:48;;;;;;;15.82;12.35;;;;;;;;;;4971039;28;20055;-69
2022/05/26 01:35:33;;;;;;;13.57;11.85;;;;;;;;;;4976607;28;20411;-69
2022/05/26 01:38:24;;;;;;;20.30;12.57;;;;;;;;;;4976828;28;20101;-69
2022/05/26 01:41:34;;;;;;;17.88;13.52;;;;;;;;;;4972615;28;20049;-71
2022/05/26 01:44:05;;;;;;;14.50;12.55;;;;;;;;;;4956123;28;20070;-69
2022/05/26 01:46:45;;;;;;;15.95;11.80;;;;;;;;;;4987657;28;20054;-68
2022/05/26 01:49:41;;;;;;;17.67;12.38;;;;;;;;;;4973618;28;20061;-69
2022/05/26 01:52:52;;;;;;;19.70;12.20;;;;;;;;;;4974619;28;20051;-69
2022/05/26 01:55:46;;;;;;;17.30;12.52;;;;;;;;;;4972518;28;20104;-69
2022/05/26 01:58:26;;;;;;;19.88;12.02;;;;;;;;;;4975226;28;20051;-69
2022/05/26 02:01:17;;;;;;;18.20;11.63;;;;;;;;;;4975655;28;20122;-70
2022/05/26 02:03:48;;;;;;;16.38;11.98;;;;;;;;;;4973629;28;20047;-71
2022/05/26 02:06:27;;;;;;;16.75;11.73;;;;;;;;;;4972728;28;20662;-70
2022/05/26 02:09:00;;;;;;;18.08;10.93;;;;;;;;;;4972197;28;20154;-70
2022/05/26 02:11:30;;;;;;;13.05;11.23;;;;;;;;;;4976576;28;20058;-69
2022/05/26 02:14:19;;;;;;;19.60;11.55;;;;;;;;;;4975364;28;20553;-70
2022/05/26 02:16:55;;;;;;;12.68;11.02;;;;;;;;;;4990974;28;20058;-69
2022/05/26 02:19:52;;;;;;;19.17;11.30;;;;;;;;;;4975146;28;20104;-69
2022/05/26 02:22:42;;;;;;;15.10;11.98;;;;;;;;;;4979950;28;20085;-69
2022/05/26 02:25:17;;;;;;;19.50;12.60;;;;;;;;;;4994458;28;20050;-70
2022/05/26 02:27:53;;;;;;;17.33;12.73;;;;;;;;;;4995973;28;20050;-70
2022/05/26 02:30:31;;;;;;;16.00;12.30;;;;;;;;;;4996814;28;20093;-70
2022/05/26 02:33:04;;;;;;;14.05;12.60;;;;;;;;;;4978872;28;20053;-70
2022/05/26 02:35:40;;;;;;;;;;;;;;;;;;4996353;28;20465;-70
2022/05/26 02:38:15;;;;;;;15.48;12.38;;;;;;;;;;4995854;28;19944;-70
2022/05/26 02:40:45;;;;;;;18.45;16.00;;;;;;;;;;4995919;28;20058;-70
2022/05/26 02:43:41;;;;;;;20.15;15.68;;;;;;;;;;4995612;28;20054;-70
2022/05/26 02:46:44;;;;;;;19.10;13.82;;;;;;;;;;4994597;28;20046;-70
2022/05/26 02:49:22;;;;;;;20.20;15.70;;;;;;;;;;4994350;28;20046;-69
2022/05/26 02:52:09;;;;;;;22.58;15.95;;;;;;;;;;4978640;28;20054;-69
2022/05/26 02:54:56;;;;;;;20.10;14.95;;;;;;;;;;4995395;28;20054;-69
2022/05/26 02:57:43;;;;;;;17.60;13.90;;;;;;;;;;4995829;28;20079;-68
2022/05/26 03:00:37;;;;;;;16.05;14.40;;;;;;;;;;4994738;28;20050;-69
2022/05/26 03:03:15;;;;;;;16.90;14.23;;;;;;;;;;4975780;28;20132;-69
2022/05/26 03:06:06;;;;;;;17.83;14.55;;;;;;;;;;4978192;28;20062;-69
2022/05/26 03:08:37;;;;;;;21.77;15.25;;;;;;;;;;4995457;28;20555;-69
2022/05/26 03:11:12;;;;;;;21.33;15.90;;;;;;;;;;4977944;28;20050;-69
2022/05/26 03:13:42;;;;;;;22.63;16.73;;;;;;;;;;4995376;28;20088;-69
2022/05/26 03:16:10;;;;;;;23.40;16.42;;;;;;;;;;4995599;28;20486;-69
2022/05/26 03:18:42;;;;;;;18.15;14.68;;;;;;;;;;4995095;28;20050;-69
2022/05/26 03:21:11;;;;;;;28.40;16.45;;;;;;;;;;4994056;28;20047;-70
2022/05/26 03:23:40;;;;;;;27.00;17.08;;;;;;;;;;4995139;28;20085;-71
2022/05/26 03:26:11;;;;;;;20.25;15.40;;;;;;;;;;4995356;28;20054;-70
2022/05/26 03:28:40;;;;;;;15.35;13.80;;;;;;;;;;4994316;28;20394;-71
2022/05/26 03:31:10;;;;;;;16.58;14.60;;;;;;;;;;4994916;28;20059;-70
2022/05/26 03:42:04;;;;;;;16.73;12.93;;;;;;;;;;4994871;28;20082;-71
2022/05/26 03:44:35;;;;;;;20.38;13.07;;;;;;;;;;4994698;28;20047;-71
2022/05/26 03:47:05;;;;;;;15.13;13.32;;;;;;;;;;4994676;28;20046;-71
2022/05/26 03:49:35;;;;;;;16.35;13.68;;;;;;;;;;4995186;28;20061;-72
2022/05/26 03:52:05;;;;;;;17.00;12.85;;;;;;;;;;4994428;28;20061;-71
2022/05/26 03:54:35;;;;;;;14.95;13.48;;;;;;;;;;4994337;28;20096;-70
2022/05/26 03:57:06;;;;;;;15.07;12.73;;;;;;;;;;4994055;28;20077;-70
2022/05/26 03:59:40;;;;;;;21.13;13.30;;;;;;;;;;4995025;28;20105;-70
2022/05/26 04:02:11;;;;;;;23.63;13.80;;;;;;;;;;4994212;28;20060;-71
2022/05/26 04:04:41;;;;;;;17.45;12.45;;;;;;;;;;4994328;28;20505;-71
2022/05/26 04:07:12;;;;;;;18.10;13.43;;;;;;;;;;4994026;28;20497;-74
2022/05/26 04:09:41;;;;;;;16.00;11.88;;;;;;;;;;4994335;28;20051;-72
2022/05/26 04:12:11;;;;;;;13.63;11.13;;;;;;;;;;4994459;28;20042;-73
2022/05/26 04:14:41;;;;;;;20.52;12.82;;;;;;;;;;4993888;28;20120;-73
2022/05/26 04:17:11;;;;;;;16.20;10.45;;;;;;;;;;4994272;28;20042;-72
2022/05/26 04:19:41;;;;;;;11.40;10.20;;;;;;;;;;4993877;28;20100;-71
2022/05/26 04:22:23;;;;;;;14.68;10.05;;;;;;;;;;4994109;28;20093;-71
2022/05/26 04:24:55;;;;;;;10.63;9.63;;;;;;;;;;4994140;28;20429;-72
2022/05/26 04:27:27;;;;;;;12.40;9.60;;;;;;;;;;4994438;28;20129;-72
2022/05/26 04:29:57;;;;;;;11.90;9.95;;;;;;;;;;4994077;28;20062;-72
2022/05/26 04:32:28;;;;;;;20.05;10.18;;;;;;;;;;4997216;28;20517;-73
2022/05/26 04:34:58;;;;;;;17.20;10.10;;;;;;;;;;4998588;28;20058;-72
2022/05/26 04:37:28;;;;;;;14.95;10.65;;;;;;;;;;4997890;28;20049;-71
2022/05/26 04:39:58;;;;;;;15.77;9.35;;;;;;;;;;4998235;28;20129;-72
2022/05/26 04:42:29;;;;;;;18.65;11.05;;;;;;;;;;4997832;28;20077;-71
2022/05/26 04:44:59;;;;;;;13.20;8.95;;;;;;;;;;4998303;28;20061;-72
2022/05/26 04:47:29;;;;;;;15.82;9.27;;;;;;;;;;4997963;28;20073;-71
2022/05/26 04:50:00;;;;;;;10.18;9.18;;;;;;;;;;4998088;28;20085;-72
2022/05/26 04:52:29;;;;;;;17.77;9.35;;;;;;;;;;4997778;28;20078;-72
2022/05/26 04:54:59;;;;;;;13.07;9.52;;;;;;;;;;4997943;28;20046;-72
2022/05/26 04:57:27;;;;;;;17.35;9.27;;;;;;;;;;4997568;28;20073;-72
2022/05/26 04:59:56;;;;;;;11.27;8.70;;;;;;;;;;4997376;28;20118;-73
2022/05/26 05:02:25;;;;;;;19.27;8.80;;;;;;;;;;4997236;28;20038;-72
2022/05/26 05:04:55;;;;;;;14.88;9.02;;;;;;;;;;4997071;28;20093;-70
2022/05/26 05:07:26;;;;;;;12.50;8.10;;;;;;;;;;4997445;28;20055;-71
2022/05/26 05:09:58;;;;;;;12.95;9.48;;;;;;;;;;4996172;28;20133;-71
2022/05/26 05:12:28;;;;;;;15.18;10.35;;;;;;;;;;4997283;28;20042;-69
2022/05/26 05:14:57;;;;;;;15.75;8.30;;;;;;;;;;4997032;28;20100;-69
2022/05/26 05:17:26;;;;;;;10.98;9.45;;;;;;;;;;4996532;28;20046;-71
2022/05/26 05:19:56;;;;;;;15.48;9.43;;;;;;;;;;4996321;28;20056;-70
2022/05/26 05:22:36;;;;;;;15.52;10.02;;;;;;;;;;4994124;28;20059;-72
2022/05/26 05:25:11;;;;;;;17.52;9.52;;;;;;;;;;4977600;28;20046;-72
2022/05/26 05:27:51;;;;;;;13.02;9.63;;;;;;;;;;4979178;28;20069;-72
2022/05/26 05:30:32;;;;;;;14.00;9.43;;;;;;;;;;4996940;28;20050;-71
2022/05/26 05:33:17;;;;;;;14.30;10.05;;;;;;;;;;4978952;28;20082;-72
2022/05/26 05:35:59;;;;;;;17.08;8.88;;;;;;;;;;4992728;28;20054;-73
2022/05/26 05:38:28;;;;;;;17.83;9.18;;;;;;;;;;4992568;28;20058;-72
2022/05/26 05:41:00;;;;;;;17.08;9.43;;;;;;;;;;4994731;28;20494;-73
2022/05/26 05:43:31;;;;;;;14.40;9.63;;;;;;;;;;4991979;28;20052;-72
2022/05/26 05:46:01;;;;;;;21.23;9.98;;;;;;;;;;4992356;28;20054;-72
2022/05/26 05:48:31;;;;;;;29.23;11.98;;;;;;;;;;4993067;28;20062;-72
2022/05/26 05:51:03;;;;;;;17.77;10.85;;;;;;;;;;4994396;28;20046;-72
2022/05/26 05:53:34;;;;;;;18.85;8.85;;;;;;;;;;4995864;28;20060;-71
2022/05/26 05:56:06;;;;;;;17.83;10.50;;;;;;;;;;4994468;28;20121;-72
2022/05/26 05:58:36;;;;;;;12.82;9.68;;;;;;;;;;4996375;28;20058;-72
2022/05/26 06:01:07;;;;;;;26.58;9.95;;;;;;;;;;4996495;28;20079;-73
2022/05/26 06:03:38;;;;;;;19.90;9.25;;;;;;;;;;4996252;28;20059;-72
2022/05/26 06:06:07;;;;;;;17.13;8.68;;;;;;;;;;4995223;28;20498;-73
2022/05/26 06:08:37;;;;;;;29.52;9.57;;;;;;;;;;4996539;28;20059;-77
2022/05/26 06:11:08;;;;;;;44.78;11.68;;;;;;;;;;4996298;28;20502;-76
2022/05/26 06:13:37;;;;;;;27.23;10.38;;;;;;;;;;4996060;28;20046;-76
2022/05/26 06:16:07;;;;;;;29.90;10.65;;;;;;;;;;4996601;28;20497;-76
2022/05/26 06:18:36;;;;;;;18.42;8.50;;;;;;;;;;4977718;28;20125;-76
2022/05/26 06:21:06;;;;;;;33.78;9.15;;;;;;;;;;4995989;28;20061;-76
2022/05/26 06:23:36;;;;;;;20.98;8.68;;;;;;;;;;4996234;28;20054;-76
2022/05/26 06:26:05;;;;;;;28.70;8.98;;;;;;;;;;4996357;28;20050;-76
2022/05/26 06:31:23;;;;;;;19.02;10.48;;;;;;;;;;4994607;28;20065;-76
2022/05/26 06:39:27;;;;;;;17.45;11.45;;;;;;;;;;4993602;28;20053;-76
2022/05/26 06:42:06;;;;;;;12.13;10.70;;;;;;;;;;4994361;28;20069;-76
2022/05/26 06:44:38;;;;;;;16.02;9.18;;;;;;;;;;4995742;28;20473;-76
2022/05/26 06:47:11;;;;;;;17.48;10.38;;;;;;;;;;4995942;28;20054;-76
2022/05/26 06:49:42;;;;;;;15.40;10.70;;;;;;;;;;4996054;28;20050;-76
2022/05/26 06:52:14;;;;;;;13.13;10.80;;;;;;;;;;4995760;28;20086;-77
2022/05/26 06:54:45;;;;;;;16.75;10.80;;;;;;;;;;4995848;28;20065;-76
2022/05/26 06:57:15;;;;;;;26.00;12.20;;;;;;;;;;4995243;28;20560;-75
2022/05/26 06:59:44;;;;;;;21.55;10.63;;;;;;;;;;4995876;28;20485;-76
2022/05/26 07:02:15;;;;;;;17.42;10.13;;;;;;;;;;4995364;28;20465;-76
2022/05/26 07:04:44;;;;;;;15.30;10.60;;;;;;;;;;4995813;28;20137;-76
2022/05/26 07:07:16;;;;;;;10.75;9.20;;;;;;;;;;4995270;28;20076;-76
2022/05/26 07:09:45;;;;;;;11.00;9.98;;;;;;;;;;4995345;28;20469;-75
2022/05/26 07:12:15;;;;;;;17.98;10.57;;;;;;;;;;4995506;28;20042;-76
2022/05/26 07:14:45;;;;;;;16.35;12.15;;;;;;;;;;4995172;28;20054;-76
2022/05/26 07:17:14;;;;;;;17.17;10.75;;;;;;;;;;4995588;28;20085;-76
2022/05/26 07:19:43;;;;;;;18.65;11.55;;;;;;;;;;4995013;28;20065;-76
2022/05/26 07:22:14;;;;;;;11.50;10.32;;;;;;;;;;4994779;28;20058;-76
2022/05/26 07:24:45;;;;;;;14.43;11.50;;;;;;;;;;4995035;28;20161;-76
2022/05/26 07:27:13;;;;;;;15.50;10.43;;;;;;;;;;4995360;28;20077;-77
2022/05/26 07:29:45;;;;;;;12.73;10.65;;;;;;;;;;4994652;28;20050;-76
2022/05/26 07:32:16;;;;;;;18.73;11.13;;;;;;;;;;4994795;28;20046;-76
2022/05/26 07:34:45;;;;;;;14.73;11.00;;;;;;;;;;4995332;28;20163;-75
2022/05/26 07:42:51;;;;;;;15.45;11.98;;;;;;;;;;4994649;28;20077;-76
2022/05/26 07:45:20;;;;;;;21.17;13.82;;;;;;;;;;4978013;28;20058;-76
2022/05/26 07:47:49;;;;;;;21.65;14.18;;;;;;;;;;4994436;28;20057;-76
2022/05/26 07:50:20;;;;;;;18.67;13.18;;;;;;;;;;4994827;28;20505;-76
2022/05/26 07:52:50;;;;;;;14.95;12.88;;;;;;;;;;4994560;28;20043;-76
2022/05/26 07:55:19;;;;;;;16.80;12.15;;;;;;;;;;4994891;28;20064;-76
2022/05/26 07:57:58;;;;;;;14.13;12.23;;;;;;;;;;4994398;28;20050;-76
2022/05/26 08:00:26;;;;;;;17.48;11.65;;;;;;;;;;4994884;28;20061;-75
2022/05/26 08:02:57;;;;;;;16.67;13.27;;;;;;;;;;4994250;28;20047;-75
2022/05/26 08:05:27;;;;;;;19.58;14.25;;;;;;;;;;4994235;28;20101;-76
2022/05/26 08:07:58;;;;;;;16.13;13.27;;;;;;;;;;4994758;28;20073;-76
2022/05/26 08:10:28;;;;;;;13.88;10.90;;;;;;;;;;4994373;28;20146;-76
2022/05/26 08:12:57;;;;;;;16.23;14.45;;;;;;;;;;4994746;28;20129;-76
2022/05/26 08:15:28;;;;;;;18.83;12.82;;;;;;;;;;4993985;28;20053;-76
2022/05/26 08:18:01;;;;;;;17.05;14.38;;;;;;;;;;4994747;28;20054;-76
2022/05/26 08:20:31;;;;;;;13.95;12.45;;;;;;;;;;4993839;28;20563;-76
2022/05/26 08:23:01;;;;;;;28.55;15.05;;;;;;;;;;4994328;28;20062;-76
2022/05/26 08:25:32;;;;;;;15.02;13.35;;;;;;;;;;4994115;28;20427;-76
2022/05/26 08:28:01;;;;;;;21.20;12.07;;;;;;;;;;4994290;28;20061;-76
2022/05/26 08:30:32;;;;;;;20.83;12.77;;;;;;;;;;4994371;28;20058;-76
2022/05/26 08:33:02;;;;;;;17.50;14.50;;;;;;;;;;4994205;28;20417;-76
2022/05/26 08:35:31;;;;;;;17.23;13.30;;;;;;;;;;4994609;28;20050;-76
2022/05/26 08:38:00;;;;;;;16.15;12.77;;;;;;;;;;4993775;28;20054;-76
2022/05/26 08:40:34;;;;;;;22.65;14.75;;;;;;;;;;4994196;28;20193;-76
2022/05/26 08:43:32;;;;;;;21.92;15.52;;;;;;;;;;4993971;28;20183;-76
2022/05/26 08:46:08;;;;;;;16.85;15.05;;;;;;;;;;4994268;28;20081;-76
2022/05/26 08:49:08;;;;;;;25.77;15.43;;;;;;;;;;4976840;28;20058;-76
2022/05/26 08:51:44;;;;;;;27.80;15.77;;;;;;;;;;4994110;28;20057;-76
2022/05/26 08:54:26;;;;;;;18.48;15.85;;;;;;;;;;4994402;28;20122;-75
2022/05/26 08:56:57;;;;;;;19.30;14.43;;;;;;;;;;4994114;28;20085;-76
2022/05/26 08:59:40;;;;;;;21.50;12.38;;;;;;;;;;4976680;28;20186;-75
2022/05/26 09:02:34;;;;;;;27.33;13.85;;;;;;;;;;4993817;28;20509;-76
2022/05/26 09:05:17;;;;;;;26.95;17.92;;;;;;;;;;4991789;28;20046;-76
2022/05/26 09:13:41;;;;;;;20.92;17.30;;;;;;;;;;4994304;28;20097;-76
2022/05/26 09:16:11;;;;;;;28.02;16.17;;;;;;;;;;4993559;28;20051;-76
2022/05/26 09:18:41;;;;;;;22.02;16.52;;;;;;;;;;4979013;28;20050;-76
2022/05/26 09:21:16;;;;;;;19.95;16.80;;;;;;;;;;4997273;28;20710;-76
2022/05/26 09:23:47;;;;;;;25.52;16.92;;;;;;;;;;4997636;28;20497;-75
2022/05/26 09:26:20;;;;;;;23.25;16.75;;;;;;;;;;4997382;28;20104;-77
2022/05/26 09:28:52;;;;;;;33.90;18.75;;;;;;;;;;4980731;28;20046;-76
2022/05/26 09:31:36;;;;;;;;;;;;;;;;;;4997625;28;20082;-76
2022/05/26 09:34:21;;;;;;;22.73;18.40;;;;;;;;;;4997012;28;19921;-76
2022/05/26 09:37:02;;;;;;;31.80;20.45;;;;;;;;;;4997468;28;20052;-76
2022/05/26 09:39:42;;;;;;;23.60;19.70;;;;;;;;;;4997257;28;20173;-76
2022/05/26 09:42:17;;;;;;;26.85;20.80;;;;;;;;;;4997545;28;20116;-76
2022/05/26 09:44:49;;;;;;;26.15;18.77;;;;;;;;;;4997136;28;20108;-76
2022/05/26 09:47:40;;;;;;;24.40;20.67;;;;;;;;;;4997183;28;20053;-76
2022/05/26 09:50:27;;;;;;;24.80;19.75;;;;;;;;;;4996675;28;20038;-76
2022/05/26 09:52:58;;;;;;;22.83;20.52;;;;;;;;;;4980014;28;20501;-76
2022/05/26 09:55:41;;;;;;;23.00;19.77;;;;;;;;;;4996613;28;20054;-76
2022/05/26 09:58:39;;;;;;;30.83;19.73;;;;;;;;;;4996421;28;20046;-76
2022/05/26 10:01:27;;;;;;;27.23;19.90;;;;;;;;;;4996389;28;20058;-76
2022/05/26 10:04:15;;;;;;;27.45;21.08;;;;;;;;;;4997078;28;20051;-76
2022/05/26 10:07:09;;;;;;;27.73;18.98;;;;;;;;;;4996242;28;20058;-75
2022/05/26 10:09:38;;;;;;;22.17;18.95;;;;;;;;;;4980046;28;20076;-75
2022/05/26 10:12:32;;;;;;;34.63;20.98;;;;;;;;;;4996415;28;20058;-75
2022/05/26 10:15:41;;;;;;;24.63;20.33;;;;;;;;;;4995060;28;20050;-75
2022/05/26 10:18:10;;;;;;;31.80;21.35;;;;;;;;;;4975759;28;20193;-75
2022/05/26 10:21:11;;;;;;;23.48;20.80;;;;;;;;;;4996382;28;20433;-75
2022/05/26 10:23:54;;;;;;;22.55;19.48;;;;;;;;;;4963569;28;20057;-75
2022/05/26 10:26:26;;;;;;;25.10;22.45;;;;;;;;;;4996512;28;20061;-75
2022/05/26 10:29:22;;;;;;;23.50;19.30;;;;;;;;;;4995471;28;20481;-76
2022/05/26 10:32:17;;;;;;;23.90;19.30;;;;;;;;;;4996263;28;20068;-75
2022/05/26 10:35:01;;;;;;;22.35;19.23;;;;;;;;;;4978649;28;20490;-76
2022/05/26 10:37:49;;;;;;;20.30;17.27;;;;;;;;;;4996172;28;20055;-76
2022/05/26 10:40:32;;;;;;;26.65;18.60;;;;;;;;;;4995557;28;20081;-75
2022/05/26 10:43:28;;;;;;;24.92;20.15;;;;;;;;;;4979209;28;20129;-75
2022/05/26 10:46:00;;;;;;;26.65;18.40;;;;;;;;;;4996162;28;20065;-75
2022/05/26 10:48:42;;;;;;;25.83;18.25;;;;;;;;;;4996339;28;20456;-75
2022/05/26 10:51:21;;;;;;;22.33;18.00;;;;;;;;;;4995350;28;20046;-75
2022/05/26 10:54:06;;;;;;;30.33;19.92;;;;;;;;;;4979185;28;20050;-75
2022/05/26 10:57:10;;;;;;;21.45;16.30;;;;;;;;;;4995824;28;20467;-75
2022/05/26 11:00:08;;;;;;;25.77;19.83;;;;;;;;;;4985800;28;20141;-75
2022/05/26 11:02:52;;;;;;;22.88;18.92;;;;;;;;;;4995298;28;20054;-76
2022/05/26 11:05:27;;;;;;;30.95;19.70;;;;;;;;;;4995686;28;20053;-75
2022/05/26 11:08:26;;;;;;;26.52;18.08;;;;;;;;;;4978231;28;20050;-75
2022/05/26 11:10:57;;;;;;;29.90;19.38;;;;;;;;;;4995393;28;20158;-75
2022/05/26 11:13:44;;;;;;;30.63;19.52;;;;;;;;;;4995382;28;20070;-75
2022/05/26 11:19:39;;;;;;;27.08;18.25;;;;;;;;;;4994452;28;20420;-74
2022/05/26 11:22:10;;;;;;;21.88;17.88;;;;;;;;;;4994459;28;20054;-75
2022/05/26 11:24:40;;;;;;;32.33;18.75;;;;;;;;;;4992851;28;20172;-75
2022/05/26 11:27:34;;;;;;;25.23;18.92;;;;;;;;;;4994607;28;20046;-75
2022/05/26 11:36:07;;;;;;;22.85;20.38;;;;;;;;;;4994420;28;20112;-75
2022/05/26 11:38:36;;;;;;;23.58;18.63;;;;;;;;;;4994251;28;20073;-74
2022/05/26 11:41:06;;;;;;;26.45;19.85;;;;;;;;;;4975522;28;20070;-75
2022/05/26 11:43:40;;;;;;;25.77;19.80;;;;;;;;;;4993864;28;20101;-75
2022/05/26 11:46:10;;;;;;;31.67;19.05;;;;;;;;;;4993342;28;20042;-75
2022/05/26 11:48:45;;;;;;;29.88;23.15;;;;;;;;;;4993618;28;20112;-75
2022/05/26 11:51:35;;;;;;;30.42;20.80;;;;;;;;;;4994071;28;20057;-74
2022/05/26 11:54:08;;;;;;;27.08;21.05;;;;;;;;;;4994303;28;20038;-75
2022/05/26 11:56:41;;;;;;;26.70;22.42;;;;;;;;;;4977483;28;20046;-74
2022/05/26 11:59:20;;;;;;;30.52;19.98;;;;;;;;;;4977848;28;20054;-74
2022/05/26 12:02:00;;;;;;;23.67;11.68;;;;;;;;;;4994664;28;20050;-74
2022/05/26 12:04:32;;;;;;;31.00;18.95;;;;;;;;;;4994322;28;20054;-73
2022/05/26 12:07:03;;;;;;;24.20;17.45;;;;;;;;;;4994657;28;20116;-74
2022/05/26 12:09:46;;;;;;;21.02;17.40;;;;;;;;;;4994243;28;20137;-74
2022/05/26 12:12:18;;;;;;;26.65;18.88;;;;;;;;;;4994256;28;20460;-74
2022/05/26 12:14:55;;;;;;;25.40;16.85;;;;;;;;;;4994096;28;20099;-75
2022/05/26 12:17:30;;;;;;;28.25;16.45;;;;;;;;;;4994709;28;20050;-73
2022/05/26 12:20:05;;;;;;;22.80;15.50;;;;;;;;;;4993841;28;20050;-74
2022/05/26 12:22:55;;;;;;;28.85;17.73;;;;;;;;;;4993992;28;20142;-72
2022/05/26 12:25:31;;;;;;;34.55;17.92;;;;;;;;;;4994015;28;20050;-73
2022/05/26 12:28:06;;;;;;;20.23;16.20;;;;;;;;;;4994358;28;20058;-73
2022/05/26 12:30:44;;;;;;;24.23;13.73;;;;;;;;;;4994092;28;20444;-72
2022/05/26 12:33:20;;;;;;;22.63;14.40;;;;;;;;;;4994222;28;20493;-73
2022/05/26 12:36:16;;;;;;;23.95;13.60;;;;;;;;;;4993041;28;20051;-73
2022/05/26 12:39:02;;;;;;;17.95;13.73;;;;;;;;;;4992865;28;20402;-73
2022/05/26 12:42:04;;;;;;;21.58;13.95;;;;;;;;;;4994085;28;20510;-74
2022/05/26 12:44:57;;;;;;;33.33;14.02;;;;;;;;;;4992928;28;20129;-73
2022/05/26 12:47:36;;;;;;;25.08;14.18;;;;;;;;;;4993699;28;20134;-72
2022/05/26 12:50:06;;;;;;;20.40;13.98;;;;;;;;;;4992113;28;20042;-74
2022/05/26 12:52:42;;;;;;;20.83;13.80;;;;;;;;;;4994851;28;20118;-73
2022/05/26 12:55:24;;;;;;;23.85;13.43;;;;;;;;;;4996779;28;20486;-73
2022/05/26 12:58:04;;;;;;;28.27;15.82;;;;;;;;;;4979651;28;20046;-72
2022/05/26 13:00:37;;;;;;;24.25;13.88;;;;;;;;;;4995638;28;20065;-72
2022/05/26 13:03:12;;;;;;;29.40;13.38;;;;;;;;;;4996909;28;20046;-73
2022/05/26 13:05:44;;;;;;;19.20;13.75;;;;;;;;;;4991349;28;20046;-72
2022/05/26 13:08:24;;;;;;;20.98;11.40;;;;;;;;;;4980176;28;20112;-72
2022/05/26 13:10:55;;;;;;;19.13;11.35;;;;;;;;;;4995399;28;20050;-72
2022/05/26 13:13:38;;;;;;;17.60;10.30;;;;;;;;;;4996582;28;20050;-72
2022/05/26 13:16:29;;;;;;;16.60;10.88;;;;;;;;;;4996466;28;20053;-73
2022/05/26 13:19:20;;;;;;;17.67;11.82;;;;;;;;;;4996910;28;20050;-73
2022/05/26 13:21:52;;;;;;;18.70;11.45;;;;;;;;;;4996337;28;20485;-73
2022/05/26 13:24:32;;;;;;;16.15;10.63;;;;;;;;;;4979548;28;20143;-72
2022/05/26 13:27:10;;;;;;;20.08;11.75;;;;;;;;;;4996486;28;20042;-76
2022/05/26 13:29:46;;;;;;;20.15;11.02;;;;;;;;;;4996668;28;20054;-73
2022/05/26 13:35:18;;;;;;;17.55;11.20;;;;;;;;;;4982313;28;20050;-73
2022/05/26 13:37:48;;;;;;;18.95;8.98;;;;;;;;;;4995680;28;20042;-72
2022/05/26 13:40:36;;;;;;;15.88;7.95;;;;;;;;;;4996161;28;20069;-72
2022/05/26 13:43:06;;;;;;;15.07;6.53;;;;;;;;;;4995503;28;20141;-73
2022/05/26 13:45:37;;;;;;;12.88;7.15;;;;;;;;;;4994838;28;20117;-73
2022/05/26 13:48:28;;;;;;;10.85;7.05;;;;;;;;;;4996211;28;20540;-74
2022/05/26 13:51:10;;;;;;;12.45;6.35;;;;;;;;;;4995024;28;20082;-74
2022/05/26 13:53:43;;;;;;;25.92;8.68;;;;;;;;;;4996087;28;20066;-73
2022/05/26 13:56:23;;;;;;;13.43;8.30;;;;;;;;;;4995732;28;20117;-73
2022/05/26 13:58:58;;;;;;;23.95;9.23;;;;;;;;;;4995961;28;20046;-74
2022/05/26 14:01:27;;;;;;;12.05;7.50;;;;;;;;;;4995382;28;20556;-74
2022/05/26 14:04:02;;;;;;;12.80;6.75;;;;;;;;;;4995941;28;20053;-74
2022/05/26 14:06:35;;;;;;;18.83;6.38;;;;;;;;;;4996072;28;20057;-74
2022/05/26 14:09:19;;;;;;;11.25;7.00;;;;;;;;;;4996519;28;20057;-74
2022/05/26 14:12:04;;;;;;;15.23;7.15;;;;;;;;;;4995290;28;20077;-74
2022/05/26 14:14:36;;;;;;;16.95;7.35;;;;;;;;;;4996868;28;20065;-74
2022/05/26 14:17:07;;;;;;;13.50;7.05;;;;;;;;;;4996241;28;20047;-74
2022/05/26 14:19:45;;;;;;;15.48;8.13;;;;;;;;;;4996074;28;20076;-74
2022/05/26 14:22:22;;;;;;;13.40;7.38;;;;;;;;;;4974697;28;20147;-73
2022/05/26 14:24:53;;;;;;;19.13;8.30;;;;;;;;;;4976157;28;20066;-73
2022/05/26 14:27:30;;;;;;;13.00;7.80;;;;;;;;;;4976546;28;20062;-73
2022/05/26 14:30:39;;;;;;;18.05;7.97;;;;;;;;;;4974815;28;20043;-73
2022/05/26 14:33:11;;;;;;;13.10;8.30;;;;;;;;;;4976353;28;20050;-73
2022/05/26 14:35:41;;;;;;;18.20;9.63;;;;;;;;;;4974753;28;20139;-74
2022/05/26 14:38:09;;;;;;;16.83;8.23;;;;;;;;;;4976348;28;20050;-73
2022/05/26 14:40:40;;;;;;;13.77;8.30;;;;;;;;;;4975955;28;20125;-73
2022/05/26 14:43:18;;;;;;;21.50;9.20;;;;;;;;;;4975690;28;20469;-75
2022/05/26 14:45:47;;;;;;;20.55;9.45;;;;;;;;;;4975231;28;20446;-72
2022/05/26 14:48:17;;;;;;;15.73;8.00;;;;;;;;;;4976109;28;20149;-74
2022/05/26 14:50:47;;;;;;;18.20;6.30;;;;;;;;;;4975299;28;20562;-74
2022/05/26 14:53:16;;;;;;;16.55;7.10;;;;;;;;;;4990588;28;20043;-72
2022/05/26 14:55:47;;;;;;;16.70;7.03;;;;;;;;;;4975905;28;20516;-73
2022/05/26 14:58:23;;;;;;;11.07;7.43;;;;;;;;;;4975403;28;20518;-72
2022/05/26 15:00:53;;;;;;;12.65;6.30;;;;;;;;;;4975264;28;20051;-73
2022/05/26 15:03:25;;;;;;;11.43;6.38;;;;;;;;;;4975405;28;20053;-74
2022/05/26 15:05:54;;;;;;;13.23;7.05;;;;;;;;;;4974965;28;20425;-73
2022/05/26 15:08:29;;;;;;;13.95;5.95;;;;;;;;;;4975511;28;20047;-73
2022/05/26 15:11:00;;;;;;;9.57;5.97;;;;;;;;;;4975627;28;20085;-73
2022/05/26 15:13:31;;;;;;;12.43;7.05;;;;;;;;;;4974849;28;20042;-73
2022/05/26 15:15:59;;;;;;;12.95;6.60;;;;;;;;;;4974859;28;20089;-74
2022/05/26 15:18:29;;;;;;;13.82;7.35;;;;;;;;;;4975444;28;20051;-75
2022/05/26 15:21:00;;;;;;;14.23;7.60;;;;;;;;;;4975512;28;20509;-74
2022/05/26 15:23:30;;;;;;;18.38;6.93;;;;;;;;;;4987357;28;20050;-73
2022/05/26 15:26:08;;;;;;;7.25;5.88;;;;;;;;;;4994394;28;20050;-74
2022/05/26 15:28:39;;;;;;;13.95;5.72;;;;;;;;;;4993739;28;20046;-75
2022/05/26 15:31:10;;;;;;;21.08;8.60;;;;;;;;;;4993711;28;20050;-75
2022/05/26 15:33:40;;;;;;;15.77;8.73;;;;;;;;;;4993465;28;20054;-74
2022/05/26 15:36:11;;;;;;;13.23;8.15;;;;;;;;;;4994056;28;20058;-75
2022/05/26 15:38:43;;;;;;;21.30;9.23;;;;;;;;;;4992864;28;20046;-76
2022/05/26 15:41:13;;;;;;;11.63;7.13;;;;;;;;;;4991941;28;20066;-74
2022/05/26 15:43:49;;;;;;;;;;;;;;;;;;4995414;28;20361;-74
2022/05/26 15:46:25;;;;;;;15.57;7.30;;;;;;;;;;4994669;28;20304;-74
2022/05/26 15:48:54;;;;;;;12.48;7.63;;;;;;;;;;4994629;28;20492;-74
2022/05/26 15:51:23;;;;;;;16.23;7.35;;;;;;;;;;4994388;28;20050;-75
2022/05/26 15:53:52;;;;;;;18.80;9.55;;;;;;;;;;4992372;28;20053;-74
2022/05/26 15:56:24;;;;;;;12.45;8.32;;;;;;;;;;4992552;28;20062;-74